sensor_id;sensor_type;location;lat;lon;timestamp;P1;durP1;ratioP1;P2;durP2;ratioP2
55146;SDS011;41039;49.830;23.988;2023-04-29T00:00:44;8.27;;;4.10;;
55146;SDS011;41039;49.830;23.988;2023-04-29T00:03:09;7.00;;;3.92;;
55146;SDS011;41039;49.830;23.988;2023-04-29T00:05:35;7.43;;;3.88;;
55146;SDS011;41039;49.830;23.988;2023-04-29T00:08:00;9.65;;;4.25;;
55146;SDS011;41039;49.830;23.988;2023-04-29T00:10:25;6.45;;;3.78;;
55146;SDS011;41039;49.830;23.988;2023-04-29T00:12:51;6.55;;;3.65;;
55146;SDS011;41039;49.830;23.988;2023-04-29T00:15:16;7.68;;;3.90;;
55146;SDS011;41039;49.830;23.988;2023-04-29T00:17:41;6.45;;;3.80;;
55146;SDS011;41039;49.830;23.988;2023-04-29T00:20:07;6.05;;;3.80;;
55146;SDS011;41039;49.830;23.988;2023-04-29T00:22:32;6.80;;;3.45;;
55146;SDS011;41039;49.830;23.988;2023-04-29T00:24:58;6.90;;;3.75;;
55146;SDS011;41039;49.830;23.988;2023-04-29T00:27:23;6.20;;;3.90;;
55146;SDS011;41039;49.830;23.988;2023-04-29T00:29:48;8.02;;;4.22;;
55146;SDS011;41039;49.830;23.988;2023-04-29T00:32:14;5.65;;;3.88;;
55146;SDS011;41039;49.830;23.988;2023-04-29T00:34:39;7.22;;;4.05;;
55146;SDS011;41039;49.830;23.988;2023-04-29T00:37:04;7.45;;;4.03;;
55146;SDS011;41039;49.830;23.988;2023-04-29T00:39:29;7.40;;;4.28;;
55146;SDS011;41039;49.830;23.988;2023-04-29T00:41:54;9.77;;;4.40;;
55146;SDS011;41039;49.830;23.988;2023-04-29T00:44:20;6.07;;;4.05;;
55146;SDS011;41039;49.830;23.988;2023-04-29T00:46:45;7.88;;;4.80;;
55146;SDS011;41039;49.830;23.988;2023-04-29T00:49:10;5.72;;;3.65;;
55146;SDS011;41039;49.830;23.988;2023-04-29T00:51:37;7.20;;;5.10;;
55146;SDS011;41039;49.830;23.988;2023-04-29T00:54:04;8.20;;;3.92;;
55146;SDS011;41039;49.830;23.988;2023-04-29T00:56:30;7.80;;;4.55;;
55146;SDS011;41039;49.830;23.988;2023-04-29T00:58:56;6.88;;;4.32;;
55146;SDS011;41039;49.830;23.988;2023-04-29T01:01:22;8.50;;;4.47;;
55146;SDS011;41039;49.830;23.988;2023-04-29T01:03:48;8.23;;;4.18;;
55146;SDS011;41039;49.830;23.988;2023-04-29T01:09:05;7.38;;;4.38;;
55146;SDS011;41039;49.830;23.988;2023-04-29T01:11:48;6.78;;;4.35;;
55146;SDS011;41039;49.830;23.988;2023-04-29T01:14:14;8.38;;;4.88;;
55146;SDS011;41039;49.830;23.988;2023-04-29T01:16:43;8.13;;;4.50;;
55146;SDS011;41039;49.830;23.988;2023-04-29T01:19:19;5.95;;;4.10;;
55146;SDS011;41039;49.830;23.988;2023-04-29T01:21:50;5.50;;;3.88;;
55146;SDS011;41039;49.830;23.988;2023-04-29T01:24:16;5.75;;;4.18;;
55146;SDS011;41039;49.830;23.988;2023-04-29T01:26:42;7.78;;;4.68;;
55146;SDS011;41039;49.830;23.988;2023-04-29T01:29:21;6.22;;;4.50;;
55146;SDS011;41039;49.830;23.988;2023-04-29T01:31:50;9.25;;;4.15;;
55146;SDS011;41039;49.830;23.988;2023-04-29T01:34:42;6.03;;;3.95;;
55146;SDS011;41039;49.830;23.988;2023-04-29T01:37:07;10.18;;;4.60;;
55146;SDS011;41039;49.830;23.988;2023-04-29T01:44:50;7.93;;;4.43;;
55146;SDS011;41039;49.830;23.988;2023-04-29T01:47:15;8.02;;;3.60;;
55146;SDS011;41039;49.830;23.988;2023-04-29T01:49:41;6.75;;;4.35;;
55146;SDS011;41039;49.830;23.988;2023-04-29T01:52:06;7.43;;;4.20;;
55146;SDS011;41039;49.830;23.988;2023-04-29T01:54:31;7.97;;;4.13;;
55146;SDS011;41039;49.830;23.988;2023-04-29T01:57:00;6.05;;;3.70;;
55146;SDS011;41039;49.830;23.988;2023-04-29T01:59:25;6.70;;;4.38;;
55146;SDS011;41039;49.830;23.988;2023-04-29T02:01:51;6.75;;;3.83;;
55146;SDS011;41039;49.830;23.988;2023-04-29T02:04:16;8.18;;;4.90;;
55146;SDS011;41039;49.830;23.988;2023-04-29T02:06:42;6.93;;;3.80;;
55146;SDS011;41039;49.830;23.988;2023-04-29T02:09:07;9.30;;;3.90;;
55146;SDS011;41039;49.830;23.988;2023-04-29T02:11:32;6.78;;;4.20;;
55146;SDS011;41039;49.830;23.988;2023-04-29T02:13:57;7.45;;;4.43;;
55146;SDS011;41039;49.830;23.988;2023-04-29T02:16:23;11.02;;;4.00;;
55146;SDS011;41039;49.830;23.988;2023-04-29T02:18:48;8.20;;;4.20;;
55146;SDS011;41039;49.830;23.988;2023-04-29T02:21:13;6.90;;;4.03;;
55146;SDS011;41039;49.830;23.988;2023-04-29T02:23:38;7.00;;;4.32;;
55146;SDS011;41039;49.830;23.988;2023-04-29T02:26:03;9.38;;;4.35;;
55146;SDS011;41039;49.830;23.988;2023-04-29T02:28:33;6.50;;;4.20;;
55146;SDS011;41039;49.830;23.988;2023-04-29T02:30:59;6.95;;;4.57;;
55146;SDS011;41039;49.830;23.988;2023-04-29T02:33:24;9.75;;;3.90;;
55146;SDS011;41039;49.830;23.988;2023-04-29T02:35:49;8.10;;;3.90;;
55146;SDS011;41039;49.830;23.988;2023-04-29T02:38:14;9.75;;;4.10;;
55146;SDS011;41039;49.830;23.988;2023-04-29T02:40:43;6.00;;;4.15;;
55146;SDS011;41039;49.830;23.988;2023-04-29T02:43:08;6.75;;;4.45;;
55146;SDS011;41039;49.830;23.988;2023-04-29T02:45:34;8.05;;;3.83;;
55146;SDS011;41039;49.830;23.988;2023-04-29T02:47:59;7.20;;;4.32;;
55146;SDS011;41039;49.830;23.988;2023-04-29T02:50:24;7.45;;;4.45;;
55146;SDS011;41039;49.830;23.988;2023-04-29T02:52:50;8.45;;;4.97;;
55146;SDS011;41039;49.830;23.988;2023-04-29T02:55:15;6.18;;;4.57;;
55146;SDS011;41039;49.830;23.988;2023-04-29T02:57:41;5.90;;;4.15;;
55146;SDS011;41039;49.830;23.988;2023-04-29T03:00:07;6.07;;;4.10;;
55146;SDS011;41039;49.830;23.988;2023-04-29T03:02:32;5.85;;;4.10;;
55146;SDS011;41039;49.830;23.988;2023-04-29T03:04:58;7.20;;;3.97;;
55146;SDS011;41039;49.830;23.988;2023-04-29T03:07:23;10.25;;;5.30;;
55146;SDS011;41039;49.830;23.988;2023-04-29T03:09:48;10.88;;;6.07;;
55146;SDS011;41039;49.830;23.988;2023-04-29T03:12:13;7.00;;;5.03;;
55146;SDS011;41039;49.830;23.988;2023-04-29T03:14:40;9.40;;;5.25;;
55146;SDS011;41039;49.830;23.988;2023-04-29T03:17:05;6.63;;;4.78;;
55146;SDS011;41039;49.830;23.988;2023-04-29T03:19:31;7.45;;;5.00;;
55146;SDS011;41039;49.830;23.988;2023-04-29T03:21:56;9.90;;;4.97;;
55146;SDS011;41039;49.830;23.988;2023-04-29T03:24:21;8.88;;;4.90;;
55146;SDS011;41039;49.830;23.988;2023-04-29T03:26:46;8.63;;;4.68;;
55146;SDS011;41039;49.830;23.988;2023-04-29T03:29:11;6.25;;;3.90;;
55146;SDS011;41039;49.830;23.988;2023-04-29T03:31:37;11.15;;;3.75;;
55146;SDS011;41039;49.830;23.988;2023-04-29T03:34:02;7.93;;;4.78;;
55146;SDS011;41039;49.830;23.988;2023-04-29T03:36:28;5.72;;;3.72;;
55146;SDS011;41039;49.830;23.988;2023-04-29T03:38:53;7.43;;;4.45;;
55146;SDS011;41039;49.830;23.988;2023-04-29T03:41:18;8.15;;;4.55;;
55146;SDS011;41039;49.830;23.988;2023-04-29T03:43:43;6.10;;;3.70;;
55146;SDS011;41039;49.830;23.988;2023-04-29T03:46:09;7.22;;;4.10;;
55146;SDS011;41039;49.830;23.988;2023-04-29T03:48:34;9.35;;;4.43;;
55146;SDS011;41039;49.830;23.988;2023-04-29T03:51:00;7.47;;;4.30;;
55146;SDS011;41039;49.830;23.988;2023-04-29T03:53:26;8.45;;;4.57;;
55146;SDS011;41039;49.830;23.988;2023-04-29T03:55:51;7.25;;;4.32;;
55146;SDS011;41039;49.830;23.988;2023-04-29T03:58:16;7.63;;;4.00;;
55146;SDS011;41039;49.830;23.988;2023-04-29T04:00:41;8.80;;;4.43;;
55146;SDS011;41039;49.830;23.988;2023-04-29T04:03:07;6.95;;;3.65;;
55146;SDS011;41039;49.830;23.988;2023-04-29T04:05:32;6.25;;;3.97;;
55146;SDS011;41039;49.830;23.988;2023-04-29T04:07:58;6.55;;;4.28;;
55146;SDS011;41039;49.830;23.988;2023-04-29T04:10:24;6.55;;;3.70;;
55146;SDS011;41039;49.830;23.988;2023-04-29T04:12:50;13.88;;;7.53;;
55146;SDS011;41039;49.830;23.988;2023-04-29T04:15:15;10.30;;;5.47;;
55146;SDS011;41039;49.830;23.988;2023-04-29T04:17:41;10.30;;;4.03;;
55146;SDS011;41039;49.830;23.988;2023-04-29T04:20:06;6.10;;;4.18;;
55146;SDS011;41039;49.830;23.988;2023-04-29T04:22:31;6.18;;;3.72;;
55146;SDS011;41039;49.830;23.988;2023-04-29T04:24:57;7.85;;;4.03;;
55146;SDS011;41039;49.830;23.988;2023-04-29T04:27:22;7.68;;;4.05;;
55146;SDS011;41039;49.830;23.988;2023-04-29T04:29:47;9.85;;;4.47;;
55146;SDS011;41039;49.830;23.988;2023-04-29T04:32:12;12.73;;;4.88;;
55146;SDS011;41039;49.830;23.988;2023-04-29T04:34:38;7.50;;;4.15;;
55146;SDS011;41039;49.830;23.988;2023-04-29T04:37:06;7.18;;;4.50;;
55146;SDS011;41039;49.830;23.988;2023-04-29T04:39:31;6.22;;;4.47;;
55146;SDS011;41039;49.830;23.988;2023-04-29T04:41:56;7.88;;;4.22;;
55146;SDS011;41039;49.830;23.988;2023-04-29T04:44:22;8.43;;;3.85;;
55146;SDS011;41039;49.830;23.988;2023-04-29T04:46:47;6.85;;;3.88;;
55146;SDS011;41039;49.830;23.988;2023-04-29T04:49:12;6.47;;;3.72;;
55146;SDS011;41039;49.830;23.988;2023-04-29T04:51:37;8.13;;;5.15;;
55146;SDS011;41039;49.830;23.988;2023-04-29T04:54:02;14.13;;;7.35;;
55146;SDS011;41039;49.830;23.988;2023-04-29T04:56:28;8.52;;;4.35;;
55146;SDS011;41039;49.830;23.988;2023-04-29T04:58:53;10.43;;;5.25;;
55146;SDS011;41039;49.830;23.988;2023-04-29T05:01:18;8.27;;;4.05;;
55146;SDS011;41039;49.830;23.988;2023-04-29T05:03:43;8.70;;;4.15;;
55146;SDS011;41039;49.830;23.988;2023-04-29T05:06:09;14.63;;;7.07;;
55146;SDS011;41039;49.830;23.988;2023-04-29T05:08:34;7.88;;;4.15;;
55146;SDS011;41039;49.830;23.988;2023-04-29T05:10:59;8.80;;;4.15;;
55146;SDS011;41039;49.830;23.988;2023-04-29T05:13:25;29.35;;;14.43;;
55146;SDS011;41039;49.830;23.988;2023-04-29T05:15:50;24.33;;;13.20;;
55146;SDS011;41039;49.830;23.988;2023-04-29T05:18:15;38.93;;;18.53;;
55146;SDS011;41039;49.830;23.988;2023-04-29T05:20:40;6.45;;;3.78;;
55146;SDS011;41039;49.830;23.988;2023-04-29T05:23:06;8.45;;;3.70;;
55146;SDS011;41039;49.830;23.988;2023-04-29T05:25:31;9.52;;;3.65;;
55146;SDS011;41039;49.830;23.988;2023-04-29T05:27:56;7.78;;;3.75;;
55146;SDS011;41039;49.830;23.988;2023-04-29T05:30:22;8.80;;;4.25;;
55146;SDS011;41039;49.830;23.988;2023-04-29T05:32:47;6.07;;;3.58;;
55146;SDS011;41039;49.830;23.988;2023-04-29T05:35:15;6.57;;;4.10;;
55146;SDS011;41039;49.830;23.988;2023-04-29T05:37:41;8.00;;;3.95;;
55146;SDS011;41039;49.830;23.988;2023-04-29T05:40:06;6.18;;;3.75;;
55146;SDS011;41039;49.830;23.988;2023-04-29T05:42:32;8.30;;;3.53;;
55146;SDS011;41039;49.830;23.988;2023-04-29T05:44:57;5.82;;;3.47;;
55146;SDS011;41039;49.830;23.988;2023-04-29T05:47:22;7.70;;;4.47;;
55146;SDS011;41039;49.830;23.988;2023-04-29T05:49:47;6.82;;;3.50;;
55146;SDS011;41039;49.830;23.988;2023-04-29T05:52:13;7.40;;;2.95;;
55146;SDS011;41039;49.830;23.988;2023-04-29T05:54:38;7.90;;;3.13;;
55146;SDS011;41039;49.830;23.988;2023-04-29T05:57:03;9.43;;;3.47;;
55146;SDS011;41039;49.830;23.988;2023-04-29T05:59:29;5.22;;;2.72;;
55146;SDS011;41039;49.830;23.988;2023-04-29T06:01:57;5.88;;;3.25;;
55146;SDS011;41039;49.830;23.988;2023-04-29T06:04:23;8.10;;;3.47;;
55146;SDS011;41039;49.830;23.988;2023-04-29T06:06:49;5.97;;;2.85;;
55146;SDS011;41039;49.830;23.988;2023-04-29T06:09:14;6.88;;;3.05;;
55146;SDS011;41039;49.830;23.988;2023-04-29T06:11:40;7.93;;;4.05;;
55146;SDS011;41039;49.830;23.988;2023-04-29T06:14:05;7.90;;;3.35;;
55146;SDS011;41039;49.830;23.988;2023-04-29T06:16:30;4.60;;;2.70;;
55146;SDS011;41039;49.830;23.988;2023-04-29T06:18:56;6.80;;;2.92;;
55146;SDS011;41039;49.830;23.988;2023-04-29T06:21:21;10.57;;;3.55;;
55146;SDS011;41039;49.830;23.988;2023-04-29T06:23:46;6.47;;;2.83;;
55146;SDS011;41039;49.830;23.988;2023-04-29T06:26:11;12.60;;;3.80;;
55146;SDS011;41039;49.830;23.988;2023-04-29T06:28:37;11.13;;;3.50;;
55146;SDS011;41039;49.830;23.988;2023-04-29T06:31:02;13.80;;;3.70;;
55146;SDS011;41039;49.830;23.988;2023-04-29T06:33:27;13.18;;;3.83;;
55146;SDS011;41039;49.830;23.988;2023-04-29T06:35:54;6.80;;;3.70;;
55146;SDS011;41039;49.830;23.988;2023-04-29T06:38:19;11.35;;;3.92;;
55146;SDS011;41039;49.830;23.988;2023-04-29T06:40:45;11.93;;;3.85;;
55146;SDS011;41039;49.830;23.988;2023-04-29T06:43:10;11.10;;;3.88;;
55146;SDS011;41039;49.830;23.988;2023-04-29T06:45:35;9.55;;;4.03;;
55146;SDS011;41039;49.830;23.988;2023-04-29T06:48:01;16.15;;;4.57;;
55146;SDS011;41039;49.830;23.988;2023-04-29T06:50:26;14.85;;;4.15;;
55146;SDS011;41039;49.830;23.988;2023-04-29T06:52:52;12.98;;;4.80;;
55146;SDS011;41039;49.830;23.988;2023-04-29T06:55:18;10.70;;;3.90;;
55146;SDS011;41039;49.830;23.988;2023-04-29T06:57:43;9.35;;;3.72;;
55146;SDS011;41039;49.830;23.988;2023-04-29T07:00:08;9.23;;;3.67;;
55146;SDS011;41039;49.830;23.988;2023-04-29T07:02:34;7.50;;;3.38;;
55146;SDS011;41039;49.830;23.988;2023-04-29T07:04:59;9.10;;;4.75;;
55146;SDS011;41039;49.830;23.988;2023-04-29T07:07:25;7.38;;;2.97;;
55146;SDS011;41039;49.830;23.988;2023-04-29T07:09:50;9.63;;;3.55;;
55146;SDS011;41039;49.830;23.988;2023-04-29T07:12:17;7.25;;;3.33;;
55146;SDS011;41039;49.830;23.988;2023-04-29T07:14:42;8.30;;;3.33;;
55146;SDS011;41039;49.830;23.988;2023-04-29T07:17:07;7.38;;;2.70;;
55146;SDS011;41039;49.830;23.988;2023-04-29T07:19:33;6.47;;;2.80;;
55146;SDS011;41039;49.830;23.988;2023-04-29T07:21:58;7.68;;;4.40;;
55146;SDS011;41039;49.830;23.988;2023-04-29T07:24:23;8.25;;;3.55;;
55146;SDS011;41039;49.830;23.988;2023-04-29T07:26:49;5.30;;;3.63;;
55146;SDS011;41039;49.830;23.988;2023-04-29T07:29:14;8.38;;;3.22;;
55146;SDS011;41039;49.830;23.988;2023-04-29T07:31:39;6.60;;;3.25;;
55146;SDS011;41039;49.830;23.988;2023-04-29T07:34:05;7.38;;;3.88;;
55146;SDS011;41039;49.830;23.988;2023-04-29T07:36:30;7.85;;;3.05;;
55146;SDS011;41039;49.830;23.988;2023-04-29T07:38:56;8.57;;;2.65;;
55146;SDS011;41039;49.830;23.988;2023-04-29T07:41:23;8.50;;;3.35;;
55146;SDS011;41039;49.830;23.988;2023-04-29T07:43:48;7.85;;;3.17;;
55146;SDS011;41039;49.830;23.988;2023-04-29T07:46:13;6.93;;;4.05;;
55146;SDS011;41039;49.830;23.988;2023-04-29T07:48:40;5.78;;;2.97;;
55146;SDS011;41039;49.830;23.988;2023-04-29T07:51:05;7.75;;;3.47;;
55146;SDS011;41039;49.830;23.988;2023-04-29T07:53:30;9.95;;;3.20;;
55146;SDS011;41039;49.830;23.988;2023-04-29T07:55:56;6.70;;;3.17;;
55146;SDS011;41039;49.830;23.988;2023-04-29T07:58:21;7.45;;;3.38;;
55146;SDS011;41039;49.830;23.988;2023-04-29T08:00:46;6.18;;;3.30;;
55146;SDS011;41039;49.830;23.988;2023-04-29T08:03:11;5.80;;;3.35;;
55146;SDS011;41039;49.830;23.988;2023-04-29T08:05:37;7.45;;;3.15;;
55146;SDS011;41039;49.830;23.988;2023-04-29T08:08:02;7.20;;;3.03;;
55146;SDS011;41039;49.830;23.988;2023-04-29T08:10:28;6.82;;;2.90;;
55146;SDS011;41039;49.830;23.988;2023-04-29T08:12:53;4.47;;;2.80;;
55146;SDS011;41039;49.830;23.988;2023-04-29T08:15:19;5.10;;;2.92;;
55146;SDS011;41039;49.830;23.988;2023-04-29T08:17:44;6.82;;;2.92;;
55146;SDS011;41039;49.830;23.988;2023-04-29T08:20:10;10.40;;;3.30;;
55146;SDS011;41039;49.830;23.988;2023-04-29T08:22:35;6.18;;;3.40;;
55146;SDS011;41039;49.830;23.988;2023-04-29T08:25:01;7.15;;;3.22;;
55146;SDS011;41039;49.830;23.988;2023-04-29T08:27:27;5.90;;;2.95;;
55146;SDS011;41039;49.830;23.988;2023-04-29T08:29:52;8.38;;;3.13;;
55146;SDS011;41039;49.830;23.988;2023-04-29T08:32:17;6.45;;;3.38;;
55146;SDS011;41039;49.830;23.988;2023-04-29T08:34:43;6.78;;;3.47;;
55146;SDS011;41039;49.830;23.988;2023-04-29T08:37:08;6.28;;;3.55;;
55146;SDS011;41039;49.830;23.988;2023-04-29T08:39:33;9.07;;;3.70;;
55146;SDS011;41039;49.830;23.988;2023-04-29T08:41:59;8.43;;;4.23;;
55146;SDS011;41039;49.830;23.988;2023-04-29T08:44:31;5.07;;;3.30;;
55146;SDS011;41039;49.830;23.988;2023-04-29T08:46:57;6.22;;;3.83;;
55146;SDS011;41039;49.830;23.988;2023-04-29T08:49:23;4.68;;;3.30;;
55146;SDS011;41039;49.830;23.988;2023-04-29T08:51:48;7.35;;;3.88;;
55146;SDS011;41039;49.830;23.988;2023-04-29T08:54:15;5.30;;;3.60;;
55146;SDS011;41039;49.830;23.988;2023-04-29T08:56:41;5.90;;;2.97;;
55146;SDS011;41039;49.830;23.988;2023-04-29T08:59:09;6.40;;;3.50;;
55146;SDS011;41039;49.830;23.988;2023-04-29T09:01:34;5.35;;;3.20;;
55146;SDS011;41039;49.830;23.988;2023-04-29T09:04:07;5.68;;;3.40;;
55146;SDS011;41039;49.830;23.988;2023-04-29T09:06:33;6.18;;;3.47;;
55146;SDS011;41039;49.830;23.988;2023-04-29T09:08:58;6.70;;;3.55;;
55146;SDS011;41039;49.830;23.988;2023-04-29T09:11:24;6.85;;;3.97;;
55146;SDS011;41039;49.830;23.988;2023-04-29T09:13:51;10.02;;;3.78;;
55146;SDS011;41039;49.830;23.988;2023-04-29T09:16:16;9.73;;;3.20;;
55146;SDS011;41039;49.830;23.988;2023-04-29T09:18:42;5.47;;;3.20;;
55146;SDS011;41039;49.830;23.988;2023-04-29T09:21:14;7.82;;;3.10;;
55146;SDS011;41039;49.830;23.988;2023-04-29T09:23:40;7.78;;;3.90;;
55146;SDS011;41039;49.830;23.988;2023-04-29T09:26:05;5.43;;;2.90;;
55146;SDS011;41039;49.830;23.988;2023-04-29T09:28:30;3.95;;;3.05;;
55146;SDS011;41039;49.830;23.988;2023-04-29T09:30:56;5.72;;;3.00;;
55146;SDS011;41039;49.830;23.988;2023-04-29T09:33:21;5.50;;;3.00;;
55146;SDS011;41039;49.830;23.988;2023-04-29T09:35:46;4.82;;;2.72;;
55146;SDS011;41039;49.830;23.988;2023-04-29T09:38:13;7.75;;;3.38;;
55146;SDS011;41039;49.830;23.988;2023-04-29T09:40:39;6.65;;;3.20;;
55146;SDS011;41039;49.830;23.988;2023-04-29T09:43:10;6.13;;;3.05;;
55146;SDS011;41039;49.830;23.988;2023-04-29T09:45:38;7.28;;;3.53;;
55146;SDS011;41039;49.830;23.988;2023-04-29T09:48:03;5.32;;;3.47;;
55146;SDS011;41039;49.830;23.988;2023-04-29T09:50:29;5.75;;;3.17;;
55146;SDS011;41039;49.830;23.988;2023-04-29T09:52:54;4.63;;;2.63;;
55146;SDS011;41039;49.830;23.988;2023-04-29T09:55:19;4.33;;;2.67;;
55146;SDS011;41039;49.830;23.988;2023-04-29T09:57:45;4.25;;;3.05;;
55146;SDS011;41039;49.830;23.988;2023-04-29T10:00:11;5.35;;;2.70;;
55146;SDS011;41039;49.830;23.988;2023-04-29T10:02:37;7.00;;;2.80;;
55146;SDS011;41039;49.830;23.988;2023-04-29T10:05:05;4.70;;;2.85;;
55146;SDS011;41039;49.830;23.988;2023-04-29T10:07:30;5.00;;;3.03;;
55146;SDS011;41039;49.830;23.988;2023-04-29T10:09:56;5.45;;;3.20;;
55146;SDS011;41039;49.830;23.988;2023-04-29T10:12:21;6.43;;;3.05;;
55146;SDS011;41039;49.830;23.988;2023-04-29T10:14:56;6.70;;;2.97;;
55146;SDS011;41039;49.830;23.988;2023-04-29T10:19:57;5.25;;;3.15;;
55146;SDS011;41039;49.830;23.988;2023-04-29T10:22:35;4.50;;;3.20;;
55146;SDS011;41039;49.830;23.988;2023-04-29T10:25:00;5.40;;;3.17;;
55146;SDS011;41039;49.830;23.988;2023-04-29T10:27:28;4.10;;;3.13;;
55146;SDS011;41039;49.830;23.988;2023-04-29T10:29:53;3.95;;;2.38;;
55146;SDS011;41039;49.830;23.988;2023-04-29T10:32:20;5.47;;;2.83;;
55146;SDS011;41039;49.830;23.988;2023-04-29T10:34:46;4.75;;;2.70;;
55146;SDS011;41039;49.830;23.988;2023-04-29T10:37:12;5.10;;;3.53;;
55146;SDS011;41039;49.830;23.988;2023-04-29T10:39:52;5.65;;;3.25;;
55146;SDS011;41039;49.830;23.988;2023-04-29T10:45:16;5.05;;;2.88;;
55146;SDS011;41039;49.830;23.988;2023-04-29T10:47:43;6.57;;;2.67;;
55146;SDS011;41039;49.830;23.988;2023-04-29T10:53:10;5.18;;;3.03;;
55146;SDS011;41039;49.830;23.988;2023-04-29T10:55:36;5.15;;;3.10;;
55146;SDS011;41039;49.830;23.988;2023-04-29T10:58:02;4.93;;;3.30;;
55146;SDS011;41039;49.830;23.988;2023-04-29T11:00:28;5.63;;;2.90;;
55146;SDS011;41039;49.830;23.988;2023-04-29T11:02:54;6.63;;;2.92;;
55146;SDS011;41039;49.830;23.988;2023-04-29T11:05:29;5.80;;;2.65;;
55146;SDS011;41039;49.830;23.988;2023-04-29T11:10:36;6.30;;;2.92;;
55146;SDS011;41039;49.830;23.988;2023-04-29T11:13:36;5.32;;;2.83;;
55146;SDS011;41039;49.830;23.988;2023-04-29T11:15:53;3.45;;;2.67;;
55146;SDS011;41039;49.830;23.988;2023-04-29T11:18:27;8.00;;;3.00;;
55146;SDS011;41039;49.830;23.988;2023-04-29T11:21:14;4.75;;;2.85;;
55146;SDS011;41039;49.830;23.988;2023-04-29T11:23:38;5.95;;;2.85;;
55146;SDS011;41039;49.830;23.988;2023-04-29T11:26:09;4.68;;;2.75;;
55146;SDS011;41039;49.830;23.988;2023-04-29T11:28:34;6.90;;;3.10;;
55146;SDS011;41039;49.830;23.988;2023-04-29T11:30:59;5.00;;;2.63;;
55146;SDS011;41039;49.830;23.988;2023-04-29T11:33:25;4.50;;;3.17;;
55146;SDS011;41039;49.830;23.988;2023-04-29T11:35:51;5.85;;;2.83;;
55146;SDS011;41039;49.830;23.988;2023-04-29T11:38:17;5.45;;;2.88;;
55146;SDS011;41039;49.830;23.988;2023-04-29T11:40:48;5.28;;;2.83;;
55146;SDS011;41039;49.830;23.988;2023-04-29T11:43:17;5.55;;;3.17;;
55146;SDS011;41039;49.830;23.988;2023-04-29T11:45:45;6.30;;;2.85;;
55146;SDS011;41039;49.830;23.988;2023-04-29T11:48:17;5.97;;;2.90;;
55146;SDS011;41039;49.830;23.988;2023-04-29T11:50:44;4.32;;;2.80;;
55146;SDS011;41039;49.830;23.988;2023-04-29T11:53:09;5.80;;;2.70;;
55146;SDS011;41039;49.830;23.988;2023-04-29T11:55:35;6.47;;;3.28;;
55146;SDS011;41039;49.830;23.988;2023-04-29T11:58:00;4.40;;;2.23;;
55146;SDS011;41039;49.830;23.988;2023-04-29T12:00:25;3.85;;;2.50;;
55146;SDS011;41039;49.830;23.988;2023-04-29T12:02:50;4.95;;;2.70;;
55146;SDS011;41039;49.830;23.988;2023-04-29T12:05:16;4.13;;;2.50;;
55146;SDS011;41039;49.830;23.988;2023-04-29T12:07:42;4.55;;;2.15;;
55146;SDS011;41039;49.830;23.988;2023-04-29T12:10:08;4.05;;;2.38;;
55146;SDS011;41039;49.830;23.988;2023-04-29T12:12:37;4.35;;;2.72;;
55146;SDS011;41039;49.830;23.988;2023-04-29T12:15:04;7.78;;;2.60;;
55146;SDS011;41039;49.830;23.988;2023-04-29T12:17:30;8.70;;;3.30;;
55146;SDS011;41039;49.830;23.988;2023-04-29T12:19:55;6.60;;;2.60;;
55146;SDS011;41039;49.830;23.988;2023-04-29T12:22:21;5.82;;;2.78;;
55146;SDS011;41039;49.830;23.988;2023-04-29T12:24:46;8.77;;;2.60;;
55146;SDS011;41039;49.830;23.988;2023-04-29T12:27:11;5.07;;;2.42;;
55146;SDS011;41039;49.830;23.988;2023-04-29T12:29:37;4.70;;;3.25;;
55146;SDS011;41039;49.830;23.988;2023-04-29T12:32:02;5.07;;;2.65;;
55146;SDS011;41039;49.830;23.988;2023-04-29T12:34:28;6.50;;;2.50;;
55146;SDS011;41039;49.830;23.988;2023-04-29T12:37:03;5.05;;;2.42;;
55146;SDS011;41039;49.830;23.988;2023-04-29T12:39:29;7.47;;;2.65;;
55146;SDS011;41039;49.830;23.988;2023-04-29T12:41:56;4.63;;;2.42;;
55146;SDS011;41039;49.830;23.988;2023-04-29T12:44:22;5.20;;;2.50;;
55146;SDS011;41039;49.830;23.988;2023-04-29T12:46:47;6.72;;;2.40;;
55146;SDS011;41039;49.830;23.988;2023-04-29T12:49:12;6.30;;;2.72;;
55146;SDS011;41039;49.830;23.988;2023-04-29T12:51:38;3.20;;;2.28;;
55146;SDS011;41039;49.830;23.988;2023-04-29T12:54:03;4.53;;;2.47;;
55146;SDS011;41039;49.830;23.988;2023-04-29T12:56:30;5.13;;;2.75;;
55146;SDS011;41039;49.830;23.988;2023-04-29T12:58:56;5.78;;;2.53;;
55146;SDS011;41039;49.830;23.988;2023-04-29T13:01:21;6.25;;;2.85;;
55146;SDS011;41039;49.830;23.988;2023-04-29T13:03:46;4.50;;;2.35;;
55146;SDS011;41039;49.830;23.988;2023-04-29T13:06:13;8.20;;;2.92;;
55146;SDS011;41039;49.830;23.988;2023-04-29T13:08:38;7.65;;;2.33;;
55146;SDS011;41039;49.830;23.988;2023-04-29T13:11:03;4.82;;;2.45;;
55146;SDS011;41039;49.830;23.988;2023-04-29T13:13:29;5.50;;;2.65;;
55146;SDS011;41039;49.830;23.988;2023-04-29T13:15:54;4.20;;;2.80;;
55146;SDS011;41039;49.830;23.988;2023-04-29T13:18:19;4.20;;;2.10;;
55146;SDS011;41039;49.830;23.988;2023-04-29T13:20:44;6.67;;;2.77;;
55146;SDS011;41039;49.830;23.988;2023-04-29T13:23:09;4.00;;;2.35;;
55146;SDS011;41039;49.830;23.988;2023-04-29T13:25:36;4.28;;;2.80;;
55146;SDS011;41039;49.830;23.988;2023-04-29T13:28:01;5.70;;;2.85;;
55146;SDS011;41039;49.830;23.988;2023-04-29T13:30:26;4.15;;;2.83;;
55146;SDS011;41039;49.830;23.988;2023-04-29T13:32:52;5.82;;;2.95;;
55146;SDS011;41039;49.830;23.988;2023-04-29T13:35:17;5.15;;;2.90;;
55146;SDS011;41039;49.830;23.988;2023-04-29T13:37:42;6.57;;;2.72;;
55146;SDS011;41039;49.830;23.988;2023-04-29T13:40:07;5.20;;;2.75;;
55146;SDS011;41039;49.830;23.988;2023-04-29T13:42:33;5.75;;;2.95;;
55146;SDS011;41039;49.830;23.988;2023-04-29T13:44:58;5.93;;;2.58;;
55146;SDS011;41039;49.830;23.988;2023-04-29T13:47:23;7.27;;;2.73;;
55146;SDS011;41039;49.830;23.988;2023-04-29T13:49:49;3.55;;;2.20;;
55146;SDS011;41039;49.830;23.988;2023-04-29T13:52:14;6.00;;;2.60;;
55146;SDS011;41039;49.830;23.988;2023-04-29T13:54:39;6.70;;;3.90;;
55146;SDS011;41039;49.830;23.988;2023-04-29T13:57:04;6.28;;;3.00;;
55146;SDS011;41039;49.830;23.988;2023-04-29T13:59:33;5.90;;;2.88;;
55146;SDS011;41039;49.830;23.988;2023-04-29T14:01:59;5.85;;;2.63;;
55146;SDS011;41039;49.830;23.988;2023-04-29T14:04:24;3.53;;;2.10;;
55146;SDS011;41039;49.830;23.988;2023-04-29T14:06:50;4.85;;;2.80;;
55146;SDS011;41039;49.830;23.988;2023-04-29T14:09:15;8.68;;;3.33;;
55146;SDS011;41039;49.830;23.988;2023-04-29T14:11:41;5.13;;;3.53;;
55146;SDS011;41039;49.830;23.988;2023-04-29T14:14:06;5.13;;;3.67;;
55146;SDS011;41039;49.830;23.988;2023-04-29T14:16:31;4.72;;;3.33;;
55146;SDS011;41039;49.830;23.988;2023-04-29T14:18:56;5.40;;;2.60;;
55146;SDS011;41039;49.830;23.988;2023-04-29T14:21:22;4.03;;;2.60;;
55146;SDS011;41039;49.830;23.988;2023-04-29T14:23:47;6.32;;;2.65;;
55146;SDS011;41039;49.830;23.988;2023-04-29T14:26:13;6.43;;;3.03;;
55146;SDS011;41039;49.830;23.988;2023-04-29T14:28:38;7.45;;;2.58;;
55146;SDS011;41039;49.830;23.988;2023-04-29T14:31:03;7.50;;;3.73;;
55146;SDS011;41039;49.830;23.988;2023-04-29T14:33:29;5.93;;;2.60;;
55146;SDS011;41039;49.830;23.988;2023-04-29T14:35:54;5.93;;;2.42;;
55146;SDS011;41039;49.830;23.988;2023-04-29T14:38:19;6.72;;;3.10;;
55146;SDS011;41039;49.830;23.988;2023-04-29T14:40:45;7.13;;;3.10;;
55146;SDS011;41039;49.830;23.988;2023-04-29T14:43:10;7.15;;;2.97;;
55146;SDS011;41039;49.830;23.988;2023-04-29T14:45:35;6.90;;;2.75;;